AirNav   Air Wisconsin Up To $57,000 Bonus
 
 1328 users online  

43G Belleville Airport
Belleville, Michigan, USA

GOING TO BELLEVILLE?


FAA INFORMATION EFFECTIVE 25 FEBRUARY 2021

Location

FAA Identifier: 43G
Lat/Long: 42-10-38.1605N 083-32-43.3053W
42-10.636008N 083-32.721755W
42.1772668,-83.5453626
(estimated)
Elevation: 696 ft. / 212 m (estimated)
Variation: 05W (1985)
From city: 3 miles SW of BELLEVILLE, MI
Time zone: UTC -5 (UTC -4 during Daylight Saving Time)
Zip code: 48197

Airport Operations

Airport use: Open to the public
Activation date: 06/1959
Control tower: no
ARTCC: CLEVELAND CENTER
FSS: LANSING FLIGHT SERVICE STATION
NOTAMs facility: LAN (NOTAM-D service available)
Attendance: MON-FRI 0900-1700
Wind indicator: yes
Segmented circle: yes

Airport Communications

CTAF: 122.9
WX ASOS at YIP (4 nm N): PHONE 734-961-6843
WX ASOS at DTW (9 nm E): PHONE 734-955-5015
WX ASOS at ARB (9 nm W): PHONE 734-668-7173
WX AWOS-3 at TTF (15 nm S): 119.075 (734-384-0259)
WX AWOS-3 at ONZ (18 nm E): 119.675 (734-692-9686)

Nearby radio navigation aids

VOR radial/distance  VOR name  Freq  Var
DXOr261/8.2DETROIT VOR/DME113.4006W
CRLr336/8.7CARLETON VOR/DME115.7003W
SVMr174/14.0SALEM VORTAC114.3003W

 
NDB name  Hdg/Dist  Freq  Var  ID
TECUMSEH066/17.423906WTCU - -.-. ..-
GROSSE ILE292/18.041907WRYS .-. -.-- ...
ADRIAN058/30.027806WADG .- -.. --.

Airport Services

Parking: tiedowns
Airframe service: NONE
Powerplant service: NONE
Bottled oxygen: NONE
Bulk oxygen: NONE

Runway Information

Runway 15/33

Dimensions: 2253 x 80 ft. / 687 x 24 m
Surface: turf, in fair condition
Runway edge markings: RWY & DTHR MKD WITH CONES.
RUNWAY 15  RUNWAY 33
Latitude: 42-10.793000N42-10.468500N
Longitude: 083-32.822333W083-32.580500W
Elevation: 695.0 ft.690.0 ft.
Traffic pattern: rightleft
Runway heading: 156 magnetic, 151 true336 magnetic, 331 true
Displaced threshold: 1053 ft.600 ft.
Obstructions: 6 ft. fence, 35 ft. from runway, 128 ft. left of centerline, 5:1 slope to clear
APCH RATIO 20:1 TO DTHR BASED ON STRAIGHT OUT OVR 89 FT TREES, 1790 FT DIST.
15 ft. road, 60 ft. left of centerline
APCH RATIO 21:1 TO DTHR BASED ON STRAIGHT OUT OVR 50 FT PLINE, 1065 FT DIST.

Runway 18/36

Dimensions: 2157 x 160 ft. / 657 x 49 m
Surface: turf, in fair condition
RUNWAY 18  RUNWAY 36
Latitude: 42-10.819000N42-10.464000N
Longitude: 083-32.748000W083-32.738000W
Elevation: 696.0 ft.696.0 ft.
Traffic pattern: rightleft
Runway heading: 184 magnetic, 179 true004 magnetic, 359 true
Markings: nonenone
Runway end identifier lights: nono
Obstructions: 20 ft. trees, 25 ft. from runway, 1:1 slope to clear15 ft. road, 25 ft. from runway, 1:1 slope to clear

Airport Ownership and Management from official FAA records

Ownership: Privately-owned
Owner: FARMER AVIATION LLC
7790 RAWSONVILLE RD
BELLEVILLE, MI 48111-2344
Phone 313-218-3301
Manager: KENNEY FARMER
7790 RAWSONVILLE RD
BELLEVILLE, MI 48111-2344
Phone 313-218-3301

Airport Operational Statistics

Aircraft based on the field: 9
Single engine airplanes: 7
Ultralights: 2
    
Aircraft operations: avg 42/month *
80% local general aviation
20% transient general aviation
* for 12-month period ending 31 December 2019

Additional Remarks

FLD CONDS SOFT DRG THAWING SEASON; VFY RWY/SNOW CONDS DRG WINTER OPS.
RWY 18/36 LCL USE ONLY - DSPLCMTS NOT MKD.
FOR CD CTC DETROIT APCH AT 800-499-8181.

Instrument Procedures

There are no published instrument procedures at 43G.

Some nearby airports with instrument procedures:

KYIP - Willow Run Airport (4 nm N)
KDTW - Detroit Metro Wayne County Airport (9 nm E)
KARB - Ann Arbor Municipal Airport (9 nm W)
1D2 - Canton-Plymouth-Mettetal Airport (11 nm N)
KTTF - Custer Airport (15 nm S)
KONZ - Grosse Ile Municipal Airport (18 nm E)
Y47 - Oakland Southwest Airport (20 nm N)
 
Loc | Ops | Rwys | IFR | FBO | Links
Com | Nav | Svcs | Stats | Notes
Area around 43G (Belleville Airport)
 
Road maps at: MapQuest Bing Google
 
Aerial photo
WARNING: Photo may not be current or correct
Aerial photo of 43G (Belleville Airport)
Do you have a better or more recent aerial photo of Belleville Airport that you would like to share? If so, please send us your photo.

 
Sectional chart

 
Airport distance calculator
Flying to Belleville Airport? Find the distance to fly.

From to 43G

Sunrise and sunset
Times for 26-Feb-2021
 Local
(UTC-5)
 Zulu
(UTC)
Morning civil twilight06:4711:47
Sunrise07:1512:15
Sunset18:1923:19
Evening civil twilight18:4723:47

Current date and time
Zulu (UTC)  26-Feb-2021 20:57:15
Local (UTC-5)  26-Feb-2021 15:57:15
 
METAR
KYIP 
3nm N 
262053Z 15011KT 10SM CLR 06/M07 A3019 RMK AO2 SLP227 T00611067 56039
KARB 
9nm W 
734-668-7173
262053Z 17011G18KT 10SM CLR 05/M08 A3017 RMK AO2 SLP227 T00501078 56042
KDTW 
10nm E 
262053Z 16009KT 10SM FEW250 04/M08 A3020 RMK AO2 SLP233 T00441078 56039
KTTF 
16nm S 
262035Z AUTO 12009KT 10SM CLR 03/M05 A3020 RMK AO2 T00271048
KONZ 
18nm E 
262035Z AUTO 12007KT 10SM CLR 04/M05 A3019 RMK AO2 T00411050
TAF
KYIP 
3nm N 
261729Z 2618/2718 13010KT P6SM BKN250 FM270530 13008KT 6SM -RA BKN045 OVC080 TEMPO 2706/2708 6SM -FZRA OVC030 FM270800 17007KT 3SM -RA BR BKN016 OVC030 FM271200 22006KT 4SM BR OVC012 FM271700 22006KT P6SM BKN025
KDTW 
10nm E 
261729Z 2618/2724 13010KT P6SM BKN250 FM270530 13008KT 6SM -RA BKN045 OVC080 TEMPO 2706/2708 6SM -FZRA OVC030 FM270800 17007KT 3SM -RA BR BKN016 OVC030 FM271200 22006KT 4SM BR OVC012 FM271700 22006KT P6SM BKN025
NOTAMs
Click for the latest NOTAMs
NOTAMs are issued by the DoD/FAA and will open in a separate window not controlled by AirNav.

 

 
 

Would you like to see your business listed on this page?

 If your business provides an interesting product or service to pilots, flight crews, aircraft, or users of the Belleville Airport, you should consider listing it here.  To start the listing process, click on the button below
 
Add a business
 

Other Pages about Belleville Airport

Page from the Michigan Airport Directory (PDF)
 
Update a link
 
Copyright © AirNav, LLC. All rights reserved. Privacy Policy  Contact